EW6018 Weather Reports


Display with metric or nautical units.
time (UTC)temp
F
wind
direction
speed
MPH
gust
MPH
rain 1hr
in
rain 24hr
in
rain mn
in
humidity
%
barometer
mb
20201029102328 49 36 4.0 9.0 0.13 0.67 0.60 91 1006.7
20201029101822 49 40 3.0 8.0 0.12 0.66 0.59 91 1006.8
20201029101320 49 21 3.0 8.0 0.12 0.65 0.58 91 1006.7
20201029100828 49 30 3.0 7.0 0.11 0.63 0.57 91 1006.8
20201029100327 49 30 2.0 10.0 0.11 0.63 0.56 91 1006.8
20201029095821 49 38 2.0 9.0 0.10 0.62 0.55 91 1006.7
20201029095317 49 90 2.0 8.0 0.10 0.61 0.54 91 1006.4
20201029094833 49 80 1.0 10.0 0.09 0.60 0.53 91 1006.6
20201029094330 49 51 3.0 11.0 0.09 0.59 0.52 91 1006.6
20201029093822 49 64 5.0 11.0 0.08 0.58 0.51 91 1006.6
20201029093331 49 63 2.0 9.0 0.07 0.56 0.49 91 1006.7
20201029092829 49 94 4.0 10.0 0.07 0.55 0.48 91 1006.8
20201029092333 49 69 3.0 10.0 0.06 0.54 0.47 91 1006.7
20201029091821 50 114 2.0 12.0 0.05 0.53 0.46 91 1006.9
20201029091320 50 103 3.0 12.0 0.05 0.53 0.46 91 1006.7
20201029090831 50 53 1.0 6.0 0.04 0.52 0.45 91 1007.2
20201029090324 50 42 1.0 4.0 0.05 0.52 0.45 91 1007.5
20201029085818 50 78 1.0 4.0 0.05 0.52 0.45 91 1007.6
20201029085319 50 62 0.0 3.0 0.04 0.51 0.44 91 1007.6
20201029084827 50 88 1.0 5.0 0.05 0.51 0.44 91 1007.8
20201029084327 50 120 2.0 5.0 0.04 0.50 0.43 91 1008.0
20201029083820 50 78 1.0 4.0 0.05 0.50 0.43 91 1008.3
20201029083322 50 92 2.0 6.0 0.05 0.49 0.42 91 1008.3
20201029082830 50 123 2.0 6.0 0.05 0.48 0.41 91 1008.5
20201029082323 50 92 1.0 3.0 0.05 0.48 0.41 91 1008.5
20201029081818 50 92 1.0 3.0 0.06 0.48 0.41 91 1008.6
20201029081333 50 109 0.0 4.0 0.06 0.48 0.41 91 1008.7
20201029080830 50 94 1.0 4.0 0.07 0.48 0.41 91 1008.7
20201029080324 50 112 1.0 4.0 0.06 0.47 0.40 91 1008.8
20201029075815 50 81 1.0 2.0 0.07 0.47 0.40 91 1008.8
20201029075314 50 56 1.0 3.0 0.08 0.47 0.40 91 1009.1
20201029074826 50 72 1.0 3.0 0.07 0.46 0.39 91 1009.4
20201029074320 50 82 1.0 2.0 0.08 0.46 0.39 91 1009.7
20201029073814 50 82 1.0 2.0 0.08 0.45 0.38 91 1009.7
20201029073324 50 82 0.0 2.0 0.08 0.44 0.37 91 1009.9
20201029072829 50 82 1.0 3.0 0.08 0.43 0.36 91 1010.0
20201029072350 50 82 1.0 3.0 0.09 0.43 0.36 91 1010.2
20201029071821 50 116 0.0 2.0 0.09 0.42 0.35 91 1010.3
20201029071350 50 116 1.0 2.0 0.09 0.42 0.35 91 1010.2
20201029070828 50 116 1.0 3.0 0.09 0.41 0.34 91 1010.1
20201029070333 50 111 0.0 2.0 0.10 0.41 0.34 91 1010.0
20201029065813 50 111 0.0 2.0 0.10 0.40 0.33 91 1010.0
20201029065315 50 117 1.0 3.0 0.10 0.39 0.32 91 1010.1
20201029064826 50 100 1.0 3.0 0.10 0.38 0.31 91 1010.2
20201029064326 50 124 1.0 4.0 0.10 0.38 0.31 91 1010.2
20201029063814 50 125 1.0 4.0 0.10 0.37 0.30 91 1010.2
20201029063332 50 144 1.0 3.0 0.10 0.36 0.29 91 1010.3
20201029062823 50 99 0.0 2.0 0.09 0.35 0.28 91 1010.4
20201029062318 50 99 1.0 2.0 0.10 0.34 0.27 91 1010.4
20201029061832 50 99 1.0 3.0 0.10 0.33 0.26 91 1010.5
20201029061315 50 99 1.0 3.0 0.11 0.33 0.26 91 1010.6
20201029060827 50 92 1.0 3.0 0.11 0.32 0.25 91 1010.8
20201029060325 50 80 1.0 3.0 0.11 0.31 0.24 91 1010.8
20201029055821 50 106 1.0 4.0 0.11 0.31 0.23 91 1010.8
20201029055329 50 110 0.0 4.0 0.11 0.30 0.22 91 1010.9
20201029054824 50 94 0.0 3.0 0.11 0.29 0.21 91 1010.9
20201029054317 50 100 1.0 3.0 0.12 0.29 0.21 91 1011.0
20201029053814 50 111 1.0 4.0 0.12 0.28 0.20 91 1011.2
20201029053331 50 121 1.0 3.0 0.12 0.27 0.19 90 1011.1
20201029052826 50 121 1.0 3.0 0.13 0.27 0.19 90 1011.0
20201029052320 50 111 1.0 3.0 0.13 0.25 0.17 90 1011.0
20201029051834 50 115 1.0 3.0 0.13 0.24 0.16 90 1011.2
20201029051327 50 115 1.0 3.0 0.13 0.23 0.15 90 1011.5
20201029050822 50 124 1.0 2.0 0.13 0.22 0.14 90 1011.6
20201029050320 50 124 1.0 2.0 0.13 0.21 0.13 90 1011.9
20201029045814 50 124 1.0 2.0 0.13 0.23 0.12 90 1012.0
20201029045331 50 124 1.0 2.0 0.12 0.22 0.11 90 1012.1
20201029044826 50 124 1.0 2.0 0.12 0.21 0.10 90 1012.2
20201029044317 50 124 0.0 3.0 0.12 0.20 0.09 90 1012.4
20201029043817 50 124 1.0 3.0 0.11 0.19 0.08 90 1012.4
20201029043334 49 127 2.0 3.0 0.11 0.18 0.07 90 1012.8
20201029042821 49 127 1.0 4.0 0.10 0.16 0.05 90 1012.9
20201029042322 50 127 1.0 4.0 0.09 0.15 0.04 90 1013.0
20201029041818 49 138 1.0 3.0 0.08 0.14 0.03 90 1013.1
20201029041336 49 126 1.0 3.0 0.08 0.13 0.02 90 1013.2
20201029040826 49 126 1.0 3.0 0.07 0.12 0.01 90 1013.2
20201029040326 49 137 1.0 2.0 0.07 0.11 0.00 90 1013.2
20201029035813 49 137 0.0 2.0 0.06 0.10 0.10 90 1013.5
20201029035333 49 137 2.0 2.0 0.06 0.10 0.10 90 1013.4
20201029034827 49 136 1.0 2.0 0.05 0.09 0.09 90 1013.5
20201029034324 50 136 1.0 1.0 0.04 0.08 0.08 89 1013.5
20201029033816 50 136 1.0 2.0 0.04 0.08 0.08 89 1013.5
20201029033334 50 136 1.0 2.0 0.03 0.07 0.07 89 1013.8
20201029032828 50 136 0.0 1.0 0.02 0.06 0.06 89 1014.1
20201029032321 50 136 0.0 2.0 0.02 0.06 0.06 89 1014.1
20201029031816 50 136 0.0 2.0 0.02 0.06 0.06 89 1014.1
20201029031314 50 136 1.0 2.0 0.01 0.05 0.05 89 1014.2
20201029030826 50 136 0.0 2.0 0.01 0.05 0.05 89 1014.2
20201029030321 50 136 1.0 2.0 0.00 0.04 0.04 89 1014.2
20201029025831 50 136 0.0 1.0 0.00 0.04 0.04 89 1014.3
20201029025335 50 136 0.0 1.0 0.00 0.04 0.04 89 1014.2
20201029024828 50 136 0.0 2.0 0.00 0.04 0.04 89 1014.1
20201029024316 50 136 1.0 2.0 0.00 0.04 0.04 88 1014.2
20201029023825 50 136 0.0 2.0 0.00 0.04 0.04 88 1014.2
20201029023329 50 136 1.0 3.0 0.00 0.04 0.04 88 1014.2
20201029022820 50 138 1.0 3.0 0.00 0.04 0.04 88 1014.1
20201029022332 50 97 1.0 2.0 0.00 0.04 0.04 88 1014.3
20201029021827 50 97 0.0 1.0 0.00 0.04 0.04 88 1014.5
20201029021317 50 97 0.0 2.0 0.00 0.04 0.04 88 1014.5
20201029020829 50 97 1.0 3.0 0.00 0.04 0.04 88 1014.6
20201029020325 50 97 1.0 3.0 0.00 0.04 0.04 88 1014.8
20201029015817 50 177 0.0 0.0 0.00 0.05 0.04 88 1015.1
20201029015316 50 177 0.0 1.0 0.00 0.05 0.04 88 1015.2
20201029014826 50 177 0.0 1.0 0.00 0.05 0.04 88 1015.2
20201029014319 50 177 0.0 1.0 0.00 0.05 0.04 88 1015.3
20201029013831 50 177 0.0 2.0 0.00 0.05 0.04 88 1015.3
20201029013330 50 177 1.0 2.0 0.00 0.05 0.04 88 1015.3
20201029012820 50 177 0.0 1.0 0.00 0.05 0.04 88 1015.3
20201029012319 50 177 0.0 1.0 0.00 0.05 0.04 88 1015.2
20201029011817 50 177 0.0 1.0 0.00 0.05 0.04 88 1015.3
20201029011339 50 177 0.0 2.0 0.00 0.05 0.04 88 1015.2
20201029010824 50 177 1.0 2.0 0.00 0.05 0.04 88 1015.4
20201029010315 50 177 0.0 1.0 0.00 0.05 0.04 88 1015.5
20201029005830 50 177 0.0 1.0 0.00 0.05 0.04 88 1015.8
20201029005325 50 177 0.0 1.0 0.00 0.05 0.04 88 1015.8
20201029004816 50 176 1.0 1.0 0.00 0.05 0.04 87 1015.7
20201029004329 50 177 0.0 1.0 0.00 0.05 0.04 87 1016.0
20201029003826 50 177 0.0 1.0 0.00 0.05 0.04 87 1016.0
20201029003331 50 176 0.0 1.0 0.00 0.05 0.04 87 1016.2
20201029002813 50 177 0.0 2.0 0.00 0.05 0.04 87 1016.2
20201029002329 50 177 0.0 1.0 0.00 0.05 0.04 87 1016.1
20201029001825 50 177 0.0 1.0 0.00 0.05 0.04 87 1016.3
20201029001319 50 176 0.0 1.0 0.00 0.05 0.04 87 1016.3
20201029000831 50 177 0.0 0.0 0.00 0.05 0.04 87 1016.4
20201029000334 50 177 0.0 1.0 0.00 0.05 0.04 87 1016.2
20201028235821 50 176 0.0 1.0 0.00 0.05 0.04 87 1016.2
20201028235329 50 177 0.0 1.0 0.00 0.05 0.04 86 1015.9
20201028234826 50 177 0.0 1.0 0.00 0.05 0.04 86 1016.2
20201028234319 50 177 0.0 0.0 0.00 0.05 0.04 86 1016.3
20201028233819 50 177 0.0 1.0 0.00 0.05 0.04 86 1016.4
20201028233331 51 177 0.0 1.0 0.00 0.05 0.04 86 1016.5
20201028232829 51 177 0.0 1.0 0.00 0.05 0.04 86 1016.5
20201028232320 51 177 0.0 1.0 0.00 0.05 0.04 86 1016.7
20201028231817 51 177 0.0 0.0 0.00 0.05 0.04 86 1016.8
20201028231329 51 177 0.0 0.0 0.00 0.05 0.04 86 1016.8
20201028230821 51 177 0.0 1.0 0.00 0.05 0.04 86 1016.8
20201028230316 51 177 0.0 1.0 0.00 0.05 0.04 86 1016.8
20201028225833 51 177 0.0 2.0 0.00 0.05 0.04 86 1016.7
20201028225324 51 177 1.0 2.0 0.00 0.05 0.04 86 1016.7
20201028224817 51 177 0.0 0.0 0.00 0.05 0.04 86 1016.8
20201028224321 51 177 0.0 1.0 0.00 0.05 0.04 85 1016.8
20201028223840 51 177 0.0 1.0 0.00 0.05 0.04 85 1016.6
20201028223324 51 177 0.0 0.0 0.00 0.05 0.04 85 1016.8
20201028222827 51 177 0.0 1.0 0.00 0.05 0.04 85 1016.8
20201028222340 51 177 0.0 1.0 0.00 0.05 0.04 85 1016.8
20201028221829 51 177 0.0 1.0 0.00 0.05 0.04 84 1016.8
20201028221332 51 177 0.0 0.0 0.00 0.05 0.04 84 1016.8
20201028220821 51 177 0.0 0.0 0.00 0.05 0.04 84 1016.9
20201028220333 51 177 0.0 0.0 0.00 0.05 0.04 84 1016.9
20201028215820 51 177 0.0 1.0 0.00 0.05 0.04 84 1016.9
20201028215316 51 177 0.0 2.0 0.00 0.05 0.04 84 1016.8
20201028214830 51 177 0.0 2.0 0.00 0.05 0.04 84 1016.7
20201028214327 51 177 1.0 2.0 0.00 0.05 0.04 83 1016.8
20201028213816 51 177 1.0 2.0 0.00 0.05 0.04 83 1016.7
20201028213316 52 179 1.0 2.0 0.00 0.05 0.04 83 1016.8
20201028212837 52 208 0.0 3.0 0.00 0.05 0.04 83 1016.8
20201028212332 52 169 1.0 3.0 0.00 0.05 0.04 83 1016.9
20201028211820 52 185 1.0 3.0 0.00 0.05 0.04 83 1016.8
20201028211312 52 190 1.0 3.0 0.00 0.05 0.04 83 1016.9
20201028210831 52 200 1.0 3.0 0.00 0.05 0.04 83 1017.0
20201028210326 52 200 0.0 4.0 0.00 0.05 0.04 83 1016.9
20201028205852 52 203 2.0 4.0 0.00 0.05 0.04 83 1017.1
20201028205318 52 243 1.0 3.0 0.00 0.05 0.04 83 1017.0
20201028204826 52 258 1.0 3.0 0.00 0.05 0.04 83 1017.0
20201028204319 52 194 1.0 3.0 0.00 0.05 0.04 84 1017.1
20201028203816 52 177 1.0 3.0 0.00 0.05 0.04 84 1017.1
20201028203332 51 177 1.0 3.0 0.00 0.05 0.04 83 1017.2
20201028202827 51 218 0.0 3.0 0.00 0.05 0.04 83 1017.1
20201028202317 51 176 1.0 4.0 0.00 0.05 0.04 83 1016.9
20201028201836 51 153 2.0 3.0 0.00 0.05 0.04 83 1017.1
20201028201338 52 179 1.0 3.0 0.00 0.05 0.04 83 1017.2
20201028200825 52 136 1.0 3.0 0.00 0.05 0.04 83 1017.2
20201028200318 52 182 1.0 4.0 0.00 0.05 0.04 83 1017.1
20201028195830 52 196 2.0 4.0 0.00 0.05 0.04 83 1017.2
20201028195326 51 178 2.0 5.0 0.00 0.05 0.04 83 1017.4
20201028194816 51 252 1.0 5.0 0.00 0.05 0.04 83 1017.3
20201028194331 51 169 1.0 3.0 0.00 0.05 0.04 83 1017.3
20201028193820 51 221 1.0 3.0 0.00 0.05 0.04 83 1017.6
20201028193323 51 205 2.0 3.0 0.00 0.05 0.04 83 1017.6
20201028192815 51 193 1.0 5.0 0.00 0.05 0.04 83 1017.6
20201028192333 51 159 1.0 5.0 0.00 0.05 0.04 83 1017.6
20201028191825 51 206 0.0 3.0 0.00 0.05 0.04 83 1017.7
20201028191317 51 206 1.0 4.0 0.00 0.05 0.04 84 1017.6
20201028190832 51 229 1.0 4.0 0.00 0.05 0.04 84 1017.7
20201028190324 51 265 0.0 3.0 0.00 0.05 0.04 84 1017.8
20201028185821 51 188 2.0 4.0 0.00 0.05 0.04 84 1017.4
20201028185314 50 208 1.0 4.0 0.00 0.05 0.04 84 1017.6
20201028184833 50 337 0.0 3.0 0.00 0.05 0.04 84 1017.7
20201028184328 50 337 1.0 3.0 0.00 0.05 0.04 84 1018.0
20201028183813 50 337 1.0 2.0 0.00 0.05 0.04 84 1018.1
20201028183331 50 337 0.0 2.0 0.00 0.05 0.04 84 1018.1
20201028182825 51 337 1.0 2.0 0.00 0.05 0.04 84 1018.2
20201028182317 50 337 0.0 2.0 0.00 0.05 0.04 84 1018.2
20201028181815 50 337 0.0 2.0 0.00 0.05 0.04 84 1018.2
20201028181329 50 337 1.0 3.0 0.00 0.05 0.04 84 1018.5
20201028180819 50 338 2.0 3.0 0.00 0.05 0.04 84 1018.5
20201028180317 50 11 0.0 2.0 0.00 0.05 0.04 84 1018.6
20201028175827 50 11 1.0 2.0 0.00 0.05 0.04 84 1018.7
20201028175332 50 11 0.0 2.0 0.00 0.05 0.04 84 1018.6
20201028174819 50 11 1.0 2.0 0.00 0.05 0.04 84 1018.7
20201028174314 50 11 1.0 2.0 0.00 0.05 0.04 84 1018.8
20201028173826 50 11 0.0 3.0 0.00 0.05 0.04 85 1018.8
20201028173327 50 11 1.0 3.0 0.00 0.05 0.04 84 1018.9
20201028172819 50 29 1.0 3.0 0.00 0.05 0.04 85 1019.0
20201028172312 50 22 1.0 3.0 0.00 0.05 0.04 85 1018.9
20201028171830 50 9 2.0 4.0 0.00 0.05 0.04 84 1019.1
20201028171324 50 350 1.0 4.0 0.00 0.05 0.04 84 1019.1
20201028170817 50 17 1.0 4.0 0.00 0.05 0.04 84 1019.1
20201028170316 50 48 2.0 4.0 0.00 0.05 0.04 84 1019.1
20201028165833 50 12 1.0 4.0 0.00 0.05 0.04 84 1019.3
20201028165322 50 348 2.0 4.0 0.00 0.05 0.04 84 1019.2
20201028164834 50 337 1.0 3.0 0.00 0.05 0.04 84 1019.2
20201028164332 49 337 1.0 3.0 0.00 0.05 0.04 84 1019.3
20201028163848 49 34 2.0 3.0 0.00 0.05 0.04 84 1019.1
20201028163316 50 18 1.0 4.0 0.00 0.05 0.04 85 1019.2
20201028162825 50 18 1.0 4.0 0.00 0.05 0.04 84 1019.3
20201028162325 50 355 2.0 4.0 0.00 0.05 0.04 85 1019.2
20201028161821 50 355 1.0 4.0 0.00 0.05 0.04 85 1019.3
20201028161332 50 355 3.0 4.0 0.00 0.05 0.04 84 1019.3
20201028160824 49 348 2.0 4.0 0.00 0.05 0.04 85 1019.4
20201028160320 49 250 1.0 3.0 0.00 0.05 0.04 86 1019.2
20201028155814 49 250 1.0 4.0 0.00 0.05 0.04 85 1019.3
20201028155327 49 250 3.0 4.0 0.00 0.05 0.04 86 1019.3
20201028154826 49 272 2.0 3.0 0.00 0.05 0.04 86 1019.3
20201028154331 49 271 1.0 3.0 0.00 0.05 0.04 86 1019.3
20201028153815 49 302 1.0 3.0 0.00 0.05 0.04 87 1019.2
20201028153338 49 302 1.0 4.0 0.00 0.05 0.04 87 1019.4
20201028152824 49 319 0.0 2.0 0.00 0.05 0.04 88 1019.4
20201028152318 48 360 0.0 2.0 0.00 0.05 0.04 88 1019.5
20201028151835 48 360 0.0 4.0 0.00 0.05 0.04 88 1019.6
20201028151331 48 360 1.0 4.0 0.00 0.05 0.04 88 1019.5
20201028150822 48 324 3.0 4.0 0.00 0.05 0.04 89 1019.7
20201028150322 48 343 3.0 4.0 0.00 0.05 0.04 89 1019.7
20201028145831 48 334 1.0 4.0 0.00 0.05 0.04 89 1019.6
20201028145336 48 360 2.0 4.0 0.00 0.05 0.04 90 1019.8
20201028144819 47 360 1.0 4.0 0.00 0.05 0.04 90 1019.9
20201028144339 48 325 2.0 4.0 0.00 0.05 0.04 90 1019.9
20201028143827 48 11 2.0 4.0 0.00 0.05 0.04 90 1020.0
20201028143327 47 319 1.0 4.0 0.00 0.05 0.04 90 1020.1
20201028142816 47 343 1.0 4.0 0.00 0.05 0.04 90 1020.1
20201028142312 47 317 2.0 5.0 0.00 0.05 0.04 90 1020.2
20201028141840 47 341 3.0 5.0 0.00 0.05 0.04 90 1020.2
20201028141322 47 318 2.0 5.0 0.00 0.05 0.04 91 1020.3
20201028140812 47 340 2.0 5.0 0.00 0.05 0.04 91 1020.3
20201028140339 47 13 2.0 5.0 0.00 0.05 0.04 91 1020.4
20201028135819 47 5 2.0 5.0 0.00 0.05 0.04 91 1020.4
20201028135323 47 42 3.0 5.0 0.00 0.05 0.04 91 1020.1
20201028134839 47 360 2.0 5.0 0.00 0.05 0.04 91 1019.9
20201028134330 47 344 1.0 5.0 0.00 0.05 0.04 91 1019.7
20201028133824 47 343 2.0 4.0 0.00 0.05 0.04 91 1019.7
20201028133321 47 342 2.0 4.0 0.00 0.05 0.04 91 1019.5
20201028132829 47 5 2.0 6.0 0.00 0.05 0.04 91 1019.5
20201028132329 47 347 3.0 6.0 0.00 0.05 0.04 91 1019.6
20201028131833 47 321 2.0 4.0 0.00 0.05 0.04 91 1019.3
20201028131324 47 319 2.0 4.0 0.00 0.05 0.04 91 1019.2
20201028130826 47 311 2.0 4.0 0.00 0.05 0.04 91 1019.2
20201028130324 47 309 2.0 3.0 0.00 0.05 0.04 91 1019.2
20201028125815 47 339 2.0 8.0 0.00 0.05 0.04 91 1019.1
20201028125333 47 306 2.0 8.0 0.00 0.05 0.04 91 1019.1
20201028124833 47 355 3.0 8.0 0.00 0.05 0.04 91 1019.1
20201028124321 47 320 2.0 5.0 0.00 0.05 0.04 91 1019.1
20201028123816 47 11 3.0 8.0 0.00 0.05 0.04 91 1019.1
20201028123332 47 283 3.0 8.0 0.00 0.05 0.04 91 1019.0
20201028122826 47 320 2.0 4.0 0.00 0.05 0.04 91 1019.1
20201028122320 47 329 1.0 3.0 0.00 0.05 0.04 91 1019.2
20201028121833 47 348 2.0 5.0 0.00 0.05 0.04 91 1019.0
20201028121329 47 290 2.0 5.0 0.00 0.05 0.04 91 1019.0
20201028120819 47 329 1.0 5.0 0.00 0.05 0.04 91 1019.0
20201028120321 47 306 1.0 5.0 0.00 0.05 0.04 91 1018.9
20201028115828 47 315 1.0 4.0 0.00 0.05 0.04 91 1018.9
20201028115323 47 285 2.0 4.0 0.00 0.05 0.04 91 1018.8
20201028114823 47 289 2.0 4.0 0.00 0.05 0.04 91 1018.7
20201028114335 47 313 1.0 5.0 0.00 0.05 0.04 91 1018.8
20201028113824 47 304 2.0 4.0 0.00 0.05 0.04 91 1018.8
20201028113320 47 300 1.0 3.0 0.00 0.05 0.04 91 1018.6
20201028112812 47 278 0.0 3.0 0.00 0.05 0.04 91 1018.4
20201028112311 47 277 1.0 3.0 0.00 0.05 0.04 91 1018.7
20201028111830 47 278 1.0 4.0 0.00 0.05 0.04 91 1018.6
20201028111321 47 279 2.0 4.0 0.00 0.05 0.04 91 1018.7
20201028110815 47 256 1.0 3.0 0.00 0.05 0.04 91 1018.6
20201028110331 47 254 0.0 4.0 0.00 0.05 0.04 91 1018.4
20201028105820 47 270 1.0 4.0 0.00 0.05 0.04 91 1018.6
20201028105315 47 253 2.0 4.0 0.00 0.05 0.04 91 1018.6
20201028104813 47 284 2.0 4.0 0.00 0.05 0.04 91 1018.5
20201028104327 47 244 2.0 4.0 0.00 0.05 0.04 91 1018.5
20201028103819 47 279 1.0 6.0 0.00 0.05 0.04 91 1018.6
20201028103316 47 277 3.0 6.0 0.00 0.05 0.04 91 1018.7
20201028102826 47 269 2.0 3.0 0.00 0.05 0.04 91 1018.8